Time;durP1;ratioP1;P1;durP2;ratioP2;P2;SDS_P1;SDS_P2;PMS_P1;PMS_P2;Temp;Humidity;BMP_temperature;BMP_pressure;BME280_temperature;BME280_humidity;BME280_pressure;Samples;Min_cycle;Max_cycle;Signal;HPM_P1;HPM_P2
2022/05/18 00:02:12;;;;;;;6.93;3.28;;;;;;;18.66;59.23;100148.66;7657103;32;36724;-81
2022/05/18 00:06:28;;;;;;;5.57;3.40;;;;;;;18.59;59.47;100159.31;7656926;32;39096;-81
2022/05/18 00:10:47;;;;;;;6.65;3.62;;;;;;;18.57;59.49;100158.81;7644895;32;40678;-81
2022/05/18 00:15:03;;;;;;;7.22;3.10;;;;;;;18.62;59.33;100155.94;7631834;32;40103;-81
2022/05/18 00:19:19;;;;;;;9.07;3.50;;;;;;;18.58;59.57;100166.78;7635907;32;37028;-81
2022/05/18 00:23:35;;;;;;;5.32;3.05;;;;;;;18.62;59.48;100161.44;7657089;32;39281;-81
2022/05/18 00:27:51;;;;;;;8.40;3.35;;;;;;;18.43;60.17;100169.94;7657832;32;39849;-81
2022/05/18 00:32:08;;;;;;;7.85;3.42;;;;;;;18.30;60.43;100177.19;7657698;32;38786;-81
2022/05/18 00:36:24;;;;;;;7.00;3.05;;;;;;;18.16;60.24;100179.16;7657729;32;37342;-81
2022/05/18 00:40:44;;;;;;;8.85;3.92;;;;;;;18.36;59.22;100175.91;7656515;32;39303;-81
2022/05/18 00:45:00;;;;;;;6.28;3.50;;;;;;;18.29;59.70;100181.06;7657654;32;39609;-81
2022/05/18 00:49:16;;;;;;;6.55;3.25;;;;;;;18.17;59.43;100186.34;7652532;32;37909;-81
2022/05/18 00:53:41;;;;;;;13.15;3.50;;;;;;;17.94;59.86;100191.84;7631138;32;37976;-81
2022/05/18 00:58:24;;;;;;;5.37;3.65;;;;;;;17.98;59.58;100187.31;7631169;32;39298;-81
2022/05/18 01:02:45;;;;;;;7.30;3.67;;;;;;;17.79;59.88;100194.91;7631733;32;40199;-81
2022/05/18 01:07:12;;;;;;;6.55;3.37;;;;;;;17.90;59.44;100201.03;7630879;32;38737;-81
2022/05/18 01:11:28;;;;;;;8.63;3.83;;;;;;;17.93;59.34;100200.41;7649629;32;38202;-81
2022/05/18 01:15:45;;;;;;;8.55;4.35;;;;;;;17.82;59.66;100206.13;7656846;32;39815;-81
2022/05/18 01:20:06;;;;;;;9.85;4.47;;;;;;;17.60;61.55;100203.31;7646833;32;40030;-81
2022/05/18 01:24:39;;;;;;;5.87;3.67;;;;;;;17.21;63.51;100207.44;7630484;32;37594;-81
2022/05/18 01:28:59;;;;;;;6.87;3.73;;;;;;;17.50;60.94;100215.38;7630385;32;37036;-82
2022/05/18 01:33:18;;;;;;;5.25;3.62;;;;;;;17.34;60.44;100223.16;7631479;32;39263;-81
2022/05/18 01:37:34;;;;;;;6.05;3.40;;;;;;;17.33;60.61;100226.22;7633658;32;40000;-81
2022/05/18 01:42:08;;;;;;;10.70;4.43;;;;;;;17.30;61.29;100224.06;7633601;32;38182;-81
2022/05/18 01:46:24;;;;;;;8.05;3.72;;;;;;;17.12;61.91;100232.12;7632303;32;37222;-81
2022/05/18 01:50:41;;;;;;;8.68;3.78;;;;;;;17.14;61.98;100240.09;7648395;32;39391;-81
2022/05/18 01:54:57;;;;;;;8.73;3.83;;;;;;;16.98;62.46;100247.81;7659681;32;39953;-81
2022/05/18 01:59:13;;;;;;;5.78;3.50;;;;;;;16.72;63.31;100251.00;7640022;32;37927;-81
2022/05/18 02:03:29;;;;;;;5.80;3.60;;;;;;;16.68;63.00;100255.47;7633417;32;37033;-81
2022/05/18 02:07:46;;;;;;;6.90;3.45;;;;;;;16.84;62.00;100256.06;7633360;32;40049;-81
2022/05/18 02:12:02;;;;;;;6.45;3.58;;;;;;;16.85;61.74;100261.25;7656322;32;40005;-81
2022/05/18 02:16:19;;;;;;;10.85;4.05;;;;;;;16.70;61.80;100269.75;7659302;32;38877;-81
2022/05/18 02:20:37;;;;;;;7.35;3.67;;;;;;;16.53;61.58;100271.09;7644121;32;38206;-81
2022/05/18 02:24:53;;;;;;;5.60;3.35;;;;;;;16.64;61.38;100276.44;7633213;32;40092;-81
2022/05/18 02:29:09;;;;;;;7.35;3.75;;;;;;;16.45;61.71;100281.97;7633044;32;39970;-81
2022/05/18 02:33:25;;;;;;;7.05;3.65;;;;;;;16.29;61.94;100287.72;7631735;32;37911;-81
2022/05/18 02:37:41;;;;;;;6.28;3.35;;;;;;;16.31;61.84;100295.69;7633049;32;36973;-81
2022/05/18 02:41:57;;;;;;;8.75;4.40;;;;;;;16.32;61.40;100298.13;7642254;32;40058;-81
2022/05/18 02:46:18;;;;;;;10.60;4.22;;;;;;;16.11;61.77;100307.81;7658331;32;39958;-81
2022/05/18 02:50:35;;;;;;;8.32;4.03;;;;;;;16.09;61.84;100310.84;7656543;32;37680;-81
2022/05/18 02:59:26;;;;;;;8.85;3.92;;;;;;;16.33;59.28;100332.78;7659000;32;39323;-81
2022/05/18 03:03:44;;;;;;;10.07;3.60;;;;;;;16.10;60.16;100337.22;7658785;32;40818;-81
2022/05/18 03:08:00;;;;;;;4.87;3.28;;;;;;;15.94;60.22;100338.56;7657790;32;36870;-81
2022/05/18 03:12:16;;;;;;;10.05;3.85;;;;;;;16.02;59.74;100342.56;7632693;32;36756;-81
2022/05/18 03:16:32;;;;;;;5.72;3.45;;;;;;;15.66;60.60;100349.28;7632478;32;39078;-81
2022/05/18 03:25:23;;;;;;;6.93;4.10;;;;;;;15.98;59.91;100371.78;7632430;32;38563;-79
2022/05/18 03:29:40;;;;;;;7.40;3.87;;;;;;;16.16;59.28;100379.25;7632374;32;37905;-80
2022/05/18 03:33:56;;;;;;;8.68;4.03;;;;;;;15.95;59.36;100386.91;7632226;32;40057;-80
2022/05/18 03:38:12;;;;;;;9.15;4.05;;;;;;;15.55;60.38;100402.72;7635143;32;40780;-80
2022/05/18 03:42:31;;;;;;;7.55;3.80;;;;;;;15.61;59.76;100408.97;7658296;32;38073;-80
2022/05/18 03:46:47;;;;;;;8.57;3.58;;;;;;;15.42;61.18;100420.72;7658243;32;37352;-79
2022/05/18 03:51:06;;;;;;;5.90;3.50;;;;;;;15.54;60.84;100423.09;7654650;32;39410;-80
2022/05/18 03:55:24;;;;;;;8.48;3.90;;;;;;;15.34;61.67;100433.13;7657473;32;39753;-80
2022/05/18 03:59:40;;;;;;;5.47;3.83;;;;;;;15.51;61.84;100434.66;7643988;32;38757;-80
2022/05/18 04:03:56;;;;;;;6.75;4.03;;;;;;;15.64;61.90;100442.19;7632006;32;37112;-80
2022/05/18 04:08:12;;;;;;;6.50;3.65;;;;;;;15.74;61.39;100444.84;7632079;32;39573;-80
2022/05/18 04:12:28;;;;;;;6.57;3.60;;;;;;;15.94;60.59;100443.84;7631889;32;41110;-80
2022/05/18 04:16:48;;;;;;;7.07;3.75;;;;;;;15.67;61.02;100452.62;7631748;32;37635;-80
2022/05/18 04:21:06;;;;;;;7.70;3.95;;;;;;;15.46;61.40;100462.16;7649758;32;37857;-80
2022/05/18 04:25:26;;;;;;;5.55;3.50;;;;;;;15.56;60.84;100481.31;7657971;32;39359;-80
2022/05/18 04:29:43;;;;;;;7.05;3.83;;;;;;;15.56;60.56;100487.63;7656690;32;39731;-80
2022/05/18 04:33:59;;;;;;;7.00;3.33;;;;;;;15.57;60.44;100496.69;7657588;32;38857;-80
2022/05/18 04:38:15;;;;;;;7.07;3.70;;;;;;;15.62;60.24;100498.56;7656320;32;37701;-80
2022/05/18 04:42:35;;;;;;;8.32;3.35;;;;;;;15.88;59.60;100507.44;7657731;32;39885;-80
2022/05/18 04:46:56;;;;;;;7.25;4.43;;;;;;;15.95;59.76;100507.91;7657446;32;40791;-80
2022/05/18 04:51:12;;;;;;;6.62;3.92;;;;;;;16.10;59.18;100515.19;7649268;32;38667;-80
2022/05/18 04:55:28;;;;;;;5.53;3.53;;;;;;;16.11;59.03;100523.16;7631113;32;36740;-80
2022/05/18 04:59:45;;;;;;;8.48;4.00;;;;;;;16.04;59.49;100528.19;7646440;32;39010;-80
2022/05/18 05:04:02;;;;;;;11.23;3.70;;;;;;;16.09;59.46;100536.38;7655707;32;40000;-79
2022/05/18 05:08:19;;;;;;;5.05;3.20;;;;;;;16.31;58.37;100535.03;7632013;32;38493;-80
2022/05/18 05:12:35;;;;;;;7.80;3.15;;;;;;;16.29;58.14;100537.25;7633984;32;37185;-78
2022/05/18 05:16:51;;;;;;;4.28;2.42;;;;;;;16.27;59.02;100542.25;7633852;32;40054;-76
2022/05/18 05:21:08;;;;;;;6.37;2.25;;;;;;;16.47;53.30;100550.28;7645298;32;40452;-70
2022/05/18 05:25:24;;;;;;;6.68;1.87;;;;;;;17.01;51.08;100550.19;7660140;32;38111;-70
2022/05/18 05:29:40;;;;;;;6.85;2.20;;;;;;;17.27;49.47;100559.72;7656182;32;37848;-73
2022/05/18 05:33:57;;;;;;;7.78;2.08;;;;;;;17.27;47.05;100556.97;7645653;32;38997;-72
2022/05/18 05:38:13;;;;;;;2.90;1.77;;;;;;;17.38;44.98;100554.88;7632635;32;40106;-73
2022/05/18 05:42:29;;;;;;;6.03;2.03;;;;;;;17.46;42.54;100567.16;7633572;32;37965;-75
2022/05/18 05:46:45;;;;;;;4.03;2.00;;;;;;;17.79;42.07;100581.00;7633676;32;37090;-76
2022/05/18 05:51:03;;;;;;;3.78;1.83;;;;;;;17.59;42.19;100585.72;7632916;32;40122;-77
2022/05/18 05:55:19;;;;;;;4.10;2.00;;;;;;;17.69;41.98;100590.22;7643659;32;39934;-75
2022/05/18 05:59:37;;;;;;;3.83;1.80;;;;;;;17.93;41.81;100603.94;7639441;32;38164;-78
2022/05/18 06:03:53;;;;;;;2.50;1.75;;;;;;;18.13;39.01;100601.97;7659896;32;37186;-76
2022/05/18 06:08:09;;;;;;;5.20;1.58;;;;;;;17.81;38.98;100617.34;7659688;32;40016;-77
2022/05/18 06:12:26;;;;;;;1.87;1.48;;;;;;;18.21;38.94;100615.06;7659635;32;40736;-76
2022/05/18 06:16:42;;;;;;;4.50;2.10;;;;;;;18.39;39.24;100630.75;7656417;32;38031;-78
2022/05/18 06:20:59;;;;;;;5.12;1.83;;;;;;;18.41;37.83;100633.19;7643352;32;37026;-78
2022/05/18 06:25:15;;;;;;;4.40;1.70;;;;;;;18.56;37.97;100641.19;7657267;32;40783;-78
2022/05/18 06:29:31;;;;;;;3.85;1.98;;;;;;;18.38;38.53;100653.13;7658043;32;40712;-78
2022/05/18 06:33:48;;;;;;;9.52;2.45;;;;;;;18.63;38.85;100665.66;7658083;32;37896;-79
2022/05/18 06:38:11;;;;;;;6.12;1.90;;;;;;;18.73;38.50;100659.94;7640208;32;37385;-77
2022/05/18 06:42:27;;;;;;;5.55;2.08;;;;;;;18.56;39.00;100665.25;7634908;32;40077;-77
2022/05/18 06:46:43;;;;;;;10.57;2.17;;;;;;;19.11;38.69;100676.34;7658090;32;40879;-76
2022/05/18 06:51:00;;;;;;;7.37;1.87;;;;;;;18.30;39.45;100679.50;7634659;32;38474;-77
2022/05/18 06:55:16;;;;;;;4.70;1.75;;;;;;;18.71;39.35;100678.78;7632572;32;38023;-76
2022/05/18 06:59:32;;;;;;;5.40;1.80;;;;;;;19.52;38.20;100688.47;7632751;32;39433;-77
2022/05/18 07:03:48;;;;;;;4.50;2.00;;;;;;;19.22;39.07;100692.72;7632752;32;40694;-77
2022/05/18 07:08:04;;;;;;;4.15;1.85;;;;;;;19.41;37.14;100700.91;7632635;32;39069;-78
2022/05/18 07:12:21;;;;;;;2.55;1.60;;;;;;;19.36;38.76;100703.78;7632669;32;36857;-77
2022/05/18 07:16:40;;;;;;;3.90;1.85;;;;;;;18.82;37.54;100711.72;7632608;32;39142;-78
2022/05/18 07:21:00;;;;;;;5.00;1.90;;;;;;;19.18;37.34;100719.31;7632589;32;39030;-79
2022/05/18 07:25:16;;;;;;;3.83;1.60;;;;;;;19.37;36.03;100725.59;7632290;32;37957;-77
2022/05/18 07:29:34;;;;;;;3.58;1.48;;;;;;;19.68;33.68;100733.22;7634645;32;36955;-79
2022/05/18 07:33:50;;;;;;;9.43;1.98;;;;;;;19.19;32.81;100732.03;7632327;32;39435;-78
2022/05/18 07:38:06;;;;;;;4.45;1.60;;;;;;;19.04;34.58;100742.28;7632413;32;40302;-78
2022/05/18 07:42:42;;;;;;;5.10;1.83;;;;;;;19.41;34.61;100748.72;7631901;32;39549;-78
2022/05/18 07:46:58;;;;;;;2.65;1.40;;;;;;;19.75;32.84;100760.47;7633053;32;36694;-78
2022/05/18 07:51:15;;;;;;;2.53;1.40;;;;;;;19.85;33.01;100752.78;7632085;32;39417;-79
2022/05/18 07:55:31;;;;;;;3.92;1.67;;;;;;;20.47;32.54;100756.88;7632147;32;39955;-77
2022/05/18 07:59:47;;;;;;;3.10;1.30;;;;;;;20.39;32.08;100763.19;7631794;32;38708;-77
2022/05/18 08:04:04;;;;;;;4.72;1.67;;;;;;;20.40;32.00;100775.87;7632833;32;37380;-77
2022/05/18 08:08:22;;;;;;;3.37;1.45;;;;;;;19.70;31.56;100770.50;7632071;32;40049;-78
2022/05/18 08:17:12;;;;;;;2.92;1.42;;;;;;;20.67;31.56;100776.94;7648107;32;38665;-78
2022/05/18 08:21:28;;;;;;;4.18;1.45;;;;;;;20.13;30.46;100794.25;7656042;32;36609;-78
2022/05/18 08:25:46;;;;;;;3.25;1.67;;;;;;;19.56;31.09;100796.53;7653290;32;39882;-78
2022/05/18 08:30:04;;;;;;;2.75;1.40;;;;;;;20.54;28.73;100798.81;7631133;32;40234;-77
2022/05/18 08:34:21;;;;;;;3.78;1.42;;;;;;;20.30;30.25;100803.81;7631635;32;37771;-79
2022/05/18 08:38:37;;;;;;;4.97;1.58;;;;;;;20.57;29.00;100812.00;7631577;32;37652;-78
2022/05/18 08:42:53;;;;;;;6.22;1.58;;;;;;;21.01;29.38;100807.63;7631398;32;40131;-79
2022/05/18 08:47:22;;;;;;;7.57;1.65;;;;;;;21.36;28.82;100815.28;7649514;32;39899;-77
2022/05/18 08:51:48;;;;;;;1.98;1.33;;;;;;;21.52;27.76;100826.78;7657295;32;38107;-77
2022/05/18 08:56:13;;;;;;;4.22;1.23;;;;;;;21.35;26.62;100828.34;7656273;32;37820;-77
2022/05/18 09:00:31;;;;;;;5.22;1.70;;;;;;;21.80;27.70;100821.84;7656462;32;39879;-78
2022/05/18 09:04:55;;;;;;;1.42;1.10;;;;;;;21.64;25.92;100843.66;7656167;32;40021;-79
2022/05/18 09:10:13;;;;;;;3.78;1.58;;;;;;;21.48;26.07;100842.47;7655730;32;39346;-77
2022/05/18 09:14:37;;;;;;;6.65;1.33;;;;;;;22.00;25.96;100837.06;7653619;32;37759;-78
2022/05/18 09:19:02;;;;;;;5.37;1.30;;;;;;;21.08;23.87;100839.63;7629689;32;39950;-79
2022/05/18 09:24:00;;;;;;;6.18;1.45;;;;;;;21.37;25.95;100839.12;7630622;32;39622;-78
2022/05/18 09:28:38;;;;;;;3.58;1.00;;;;;;;21.37;23.37;100831.62;7624974;32;37951;-78
2022/05/18 09:33:06;;;;;;;5.50;1.33;;;;;;;22.06;24.83;100840.50;7630639;32;37520;-79
2022/05/18 09:37:41;;;;;;;7.03;1.48;;;;;;;22.47;26.04;100845.66;7630318;32;40001;-78
2022/05/18 09:42:04;;;;;;;2.85;1.23;;;;;;;22.34;23.32;100837.47;7648031;32;40005;-79
2022/05/18 09:46:24;;;;;;;3.20;1.50;;;;;;;21.97;23.55;100837.69;7639921;32;38086;-77
2022/05/18 09:50:44;;;;;;;4.75;1.40;;;;;;;22.95;21.16;100831.84;7628702;32;36881;-78
2022/05/18 09:55:01;;;;;;;4.62;1.30;;;;;;;22.91;21.20;100842.81;7632031;32;39362;-78
2022/05/18 09:59:24;;;;;;;3.50;1.25;;;;;;;22.81;23.35;100845.94;7632452;32;39086;-79
2022/05/18 10:08:44;;;;;;;4.65;1.20;;;;;;;23.23;21.53;100843.41;7633425;32;35649;-76
2022/05/18 10:13:07;;;;;;;1.87;1.10;;;;;;;23.55;20.71;100839.22;7633441;32;39362;-79
2022/05/18 10:17:51;;;;;;;4.87;1.20;;;;;;;23.61;22.59;100840.66;7633669;32;40341;-80
2022/05/18 10:22:10;;;;;;;1.45;1.10;;;;;;;24.12;20.39;100831.56;7633334;32;38618;-80
2022/05/18 10:26:33;;;;;;;4.53;1.25;;;;;;;24.25;22.58;100824.91;7633456;32;37624;-79
2022/05/18 10:31:03;;;;;;;4.35;1.27;;;;;;;23.76;22.50;100835.66;7633651;32;39283;-78
2022/05/18 10:35:47;;;;;;;2.92;1.10;;;;;;;24.59;18.81;100834.16;7651393;32;40863;-78
2022/05/18 10:40:18;;;;;;;3.92;1.12;;;;;;;24.77;20.85;100825.62;7636840;32;38855;-78
2022/05/18 10:44:35;;;;;;;4.07;0.77;;;;;;;25.45;20.11;100820.44;7637727;32;37114;-78
2022/05/18 10:48:58;;;;;;;2.85;1.20;;;;;;;25.09;18.97;100827.59;7659200;32;39375;-78
2022/05/18 10:53:15;;;;;;;2.45;1.05;;;;;;;24.73;18.72;100826.34;7658129;32;39635;-79
2022/05/18 10:57:37;;;;;;;1.30;1.00;;;;;;;24.83;18.01;100825.06;7658990;32;37829;-80
2022/05/18 11:02:27;;;;;;;5.78;1.17;;;;;;;24.91;19.02;100815.00;7659162;32;37361;-78
2022/05/18 11:06:43;;;;;;;2.53;0.90;;;;;;;25.04;17.68;100819.44;7658677;32;39979;-80
2022/05/18 11:11:15;;;;;;;1.23;0.93;;;;;;;24.62;17.65;100819.53;7655268;32;40804;-78
2022/05/18 11:15:50;;;;;;;2.15;1.05;;;;;;;24.77;17.70;100814.47;7649097;32;38044;-79
2022/05/18 11:20:17;;;;;;;7.97;1.10;;;;;;;25.44;17.83;100804.88;7658797;32;37676;-80
2022/05/18 11:24:44;;;;;;;1.55;0.70;;;;;;;25.34;16.17;100810.13;7657723;32;39364;-79
2022/05/18 11:29:55;;;;;;;2.53;1.05;;;;;;;25.19;13.98;100809.59;7645938;32;39869;-79
2022/05/18 11:34:51;;;;;;;2.60;0.60;;;;;;;25.78;16.43;100799.97;7657606;32;37927;-79
2022/05/18 11:39:22;;;;;;;2.97;0.70;;;;;;;26.27;15.12;100796.31;7658680;32;36782;-77
2022/05/18 11:43:50;;;;;;;6.03;0.90;;;;;;;26.68;13.09;100794.31;7657279;32;39017;-79
2022/05/18 11:48:06;;;;;;;4.05;0.57;;;;;;;27.36;13.59;100792.50;7632287;32;40532;-82
2022/05/18 11:52:33;;;;;;;1.67;0.65;;;;;;;27.41;11.45;100795.03;7631919;32;37996;-81
2022/05/18 11:57:33;;;;;;;2.03;0.60;;;;;;;26.68;12.75;100799.06;7631087;32;36955;-79
2022/05/18 12:02:14;;;;;;;1.17;0.73;;;;;;;26.81;12.55;100786.66;7632191;32;40182;-81
2022/05/18 12:06:46;;;;;;;1.42;0.57;;;;;;;26.57;13.17;100793.16;7631057;32;40849;-81
2022/05/18 12:11:14;;;;;;;4.45;0.80;;;;;;;27.21;13.02;100799.69;7638853;32;37957;-78
2022/05/18 12:16:15;;;;;;;2.30;0.60;;;;;;;27.59;12.60;100792.66;7641747;32;37899;-78
2022/05/18 12:20:58;;;;;;;2.70;0.70;;;;;;;27.66;11.85;100798.41;7611446;32;39336;-76
2022/05/18 12:25:16;;;;;;;;;;;;;;;27.93;11.22;100804.28;7630924;32;39966;-78
2022/05/18 12:29:32;;;;;;;1.15;0.68;;;;;;;28.37;11.87;100797.59;7631126;32;39007;-79
2022/05/18 12:34:14;;;;;;;2.58;0.60;;;;;;;28.40;11.18;100803.28;7618480;32;37264;-78
2022/05/18 12:38:52;;;;;;;8.90;0.95;;;;;;;28.50;11.16;100795.47;7631220;32;40040;-79
2022/05/18 12:43:23;;;;;;;1.73;0.50;;;;;;;28.01;10.19;100794.03;7630718;32;39683;-79
2022/05/18 12:47:52;;;;;;;1.37;0.62;;;;;;;28.14;11.65;100803.94;7631331;32;38479;-78
2022/05/18 12:52:30;;;;;;;1.33;0.50;;;;;;;28.04;11.49;100813.72;7630100;32;37133;-77
2022/05/18 12:57:05;;;;;;;3.62;0.65;;;;;;;28.98;10.78;100804.44;7631859;32;39461;-78
2022/05/18 13:01:23;;;;;;;3.70;0.90;;;;;;;28.88;9.33;100796.63;7638781;32;40781;-79
2022/05/18 13:05:43;;;;;;;1.65;0.52;;;;;;;29.32;10.04;100797.03;7647895;32;36953;-78
2022/05/18 13:10:11;;;;;;;2.22;0.47;;;;;;;28.51;9.68;100802.69;7655937;32;36935;-79
2022/05/18 13:14:41;;;;;;;0.60;0.60;;;;;;;28.73;8.31;100798.34;7640192;32;38263;-79
2022/05/18 13:18:59;;;;;;;3.25;0.80;;;;;;;29.26;10.24;100798.53;7630641;32;40080;-79
2022/05/18 13:23:31;;;;;;;0.82;0.55;;;;;;;28.40;8.82;100791.25;7629887;32;38699;-78
2022/05/18 13:27:53;;;;;;;1.13;0.70;;;;;;;28.53;9.14;100791.91;7630572;32;36780;-79
2022/05/18 13:32:13;;;;;;;1.33;0.62;;;;;;;28.85;9.49;100789.75;7632680;32;39398;-79
2022/05/18 13:36:32;;;;;;;0.55;0.55;;;;;;;29.76;9.61;100790.13;7638582;32;40116;-79
2022/05/18 13:41:11;;;;;;;0.75;0.50;;;;;;;29.39;7.96;100791.53;7660218;32;35897;-78
2022/05/18 13:45:30;;;;;;;1.23;0.57;;;;;;;28.77;8.40;100788.81;7639606;32;37199;-79
2022/05/18 13:49:47;;;;;;;1.92;0.68;;;;;;;28.81;9.24;100789.69;7633209;32;39138;-78
2022/05/18 13:54:08;;;;;;;2.55;0.80;;;;;;;29.07;9.52;100782.53;7633111;32;40708;-78
2022/05/18 13:58:26;;;;;;;2.25;0.77;;;;;;;29.51;9.74;100782.09;7631975;32;37521;-79
2022/05/18 14:02:42;;;;;;;2.75;0.57;;;;;;;29.81;9.69;100783.38;7633430;32;37240;-79
2022/05/18 14:06:58;;;;;;;3.03;0.68;;;;;;;29.96;8.33;100780.38;7632815;32;38977;-79
2022/05/18 14:11:17;;;;;;;2.03;0.60;;;;;;;29.70;7.68;100781.19;7632678;32;40906;-80
2022/05/18 14:15:40;;;;;;;1.83;0.68;;;;;;;29.37;8.15;100782.69;7633384;32;37960;-80
2022/05/18 14:20:20;;;;;;;3.58;0.65;;;;;;;29.17;7.70;100773.53;7632892;32;37753;-79
2022/05/18 14:25:06;;;;;;;0.82;0.62;;;;;;;28.83;8.01;100770.47;7636590;32;39522;-80
2022/05/18 14:29:35;;;;;;;2.15;0.60;;;;;;;28.29;8.71;100774.22;7632843;32;39551;-80
2022/05/18 14:34:01;;;;;;;1.05;0.60;;;;;;;27.65;8.29;100777.19;7646723;32;38293;-78
2022/05/18 14:38:30;;;;;;;1.95;0.85;;;;;;;27.11;9.86;100777.84;7657561;32;37174;-82
2022/05/18 14:42:52;;;;;;;3.83;0.73;;;;;;;27.59;9.78;100775.03;7636809;32;40071;-81
2022/05/18 14:47:51;;;;;;;1.67;0.73;;;;;;;27.44;10.95;100774.72;7631318;32;40683;-79
2022/05/18 14:52:10;;;;;;;2.17;0.52;;;;;;;28.42;9.45;100780.47;7594793;32;37382;-79
2022/05/18 14:56:31;;;;;;;0.32;0.30;;;;;;;28.63;10.68;100780.94;7605060;32;36064;-80
2022/05/18 15:00:48;;;;;;;0.90;0.60;;;;;;;29.53;9.48;100778.91;7605770;32;39115;-79
2022/05/18 15:05:16;;;;;;;3.47;0.60;;;;;;;29.66;9.74;100782.31;7605688;32;39748;-81
2022/05/18 15:09:53;;;;;;;0.50;0.50;;;;;;;29.62;9.43;100785.06;7606718;32;38519;-79
2022/05/18 15:14:30;;;;;;;1.98;0.55;;;;;;;29.63;8.91;100780.25;7627069;32;37843;-81
2022/05/18 15:18:55;;;;;;;1.62;0.90;;;;;;;29.69;8.32;100771.12;7632095;32;39248;-78
2022/05/18 15:23:19;;;;;;;3.55;0.90;;;;;;;29.18;10.08;100780.78;7607240;32;40147;-84
2022/05/18 15:27:38;;;;;;;2.97;0.60;;;;;;;29.55;9.63;100774.53;7606170;32;38687;-80
2022/05/18 15:32:16;;;;;;;2.20;0.52;;;;;;;29.44;9.25;100767.12;7607197;32;37968;-80
2022/05/18 15:36:33;;;;;;;3.37;0.68;;;;;;;29.69;9.98;100764.69;7622806;32;39316;-81
2022/05/18 15:40:49;;;;;;;6.25;0.65;;;;;;;29.56;9.56;100773.34;7623056;32;40161;-83
2022/05/18 15:45:06;;;;;;;1.85;0.60;;;;;;;29.27;10.30;100765.63;7606080;32;37867;-83
2022/05/18 15:49:30;;;;;;;1.50;0.60;;;;;;;29.56;8.86;100762.13;7606585;32;37313;-86
2022/05/18 15:53:52;;;;;;;2.45;0.55;;;;;;;29.28;9.31;100767.28;7645113;32;40112;-84
2022/05/18 15:58:08;;;;;;;1.27;0.60;;;;;;;29.04;10.07;100774.84;7657393;32;40475;-83
2022/05/18 16:02:24;;;;;;;3.58;0.70;;;;;;;29.03;9.75;100767.62;7641621;32;38763;-83
2022/05/18 16:06:41;;;;;;;1.45;0.80;;;;;;;29.26;10.13;100772.47;7631630;32;38257;-84
2022/05/18 16:10:58;;;;;;;1.35;0.52;;;;;;;29.19;10.75;100765.53;7631056;32;39880;-84
2022/05/18 16:15:16;;;;;;;2.10;0.60;;;;;;;28.85;10.36;100767.31;7633416;32;39672;-83
2022/05/18 16:19:32;;;;;;;2.03;0.75;;;;;;;29.01;10.19;100770.81;7658414;32;38038;-77
2022/05/18 16:23:54;;;;;;;1.00;0.65;;;;;;;28.89;9.57;100778.59;7656876;32;37052;-79
2022/05/18 16:28:13;;;;;;;1.27;0.70;;;;;;;28.45;8.44;100776.94;7656901;32;40434;-77
2022/05/18 16:32:29;;;;;;;2.78;0.77;;;;;;;27.99;9.67;100774.78;7658055;32;39910;-78
2022/05/18 16:36:45;;;;;;;6.35;0.90;;;;;;;28.06;10.52;100782.53;7657816;32;37842;-76
2022/05/18 16:41:02;;;;;;;1.73;0.60;;;;;;;27.80;10.65;100780.31;7653535;32;37094;-80
2022/05/18 16:45:26;;;;;;;0.93;0.50;;;;;;;27.61;10.90;100784.69;7631662;32;39385;-81
2022/05/18 16:49:42;;;;;;;3.47;0.55;;;;;;;27.49;10.10;100787.59;7634458;32;40550;-81
2022/05/18 16:53:58;;;;;;;1.65;0.73;;;;;;;27.30;10.32;100780.78;7656239;32;37910;-82
2022/05/18 16:58:16;;;;;;;1.60;0.60;;;;;;;27.02;10.69;100786.41;7656274;32;38030;-83
2022/05/18 17:02:32;;;;;;;1.17;0.50;;;;;;;26.90;11.62;100792.09;7656732;32;39392;-80
2022/05/18 17:06:49;;;;;;;0.95;0.60;;;;;;;26.70;11.54;100791.12;7657069;32;40056;-79
2022/05/18 17:11:06;;;;;;;0.98;0.50;;;;;;;26.57;10.67;100799.56;7656916;32;38028;-79
2022/05/18 17:15:23;;;;;;;0.50;0.40;;;;;;;26.45;11.24;100802.41;7639467;32;37123;-79
2022/05/18 17:19:41;;;;;;;1.37;0.98;;;;;;;26.32;11.49;100803.59;7630524;32;40167;-84
2022/05/18 17:23:57;;;;;;;2.72;0.70;;;;;;;26.12;11.71;100803.44;7630418;32;40166;-81
2022/05/18 17:28:16;;;;;;;1.77;0.73;;;;;;;25.88;12.26;100804.28;7648963;32;37939;-81
2022/05/18 17:32:34;;;;;;;0.98;0.70;;;;;;;25.58;13.06;100803.72;7629102;32;37158;-83
2022/05/18 17:36:50;;;;;;;2.10;0.90;;;;;;;25.32;13.34;100816.03;7630136;32;39073;-82
2022/05/18 17:41:07;;;;;;;5.07;0.90;;;;;;;25.03;13.49;100814.22;7632546;32;39987;-71
2022/05/18 17:45:23;;;;;;;3.25;0.90;;;;;;;24.40;14.76;100817.88;7647718;32;38263;-82
2022/05/18 17:49:39;;;;;;;1.48;0.80;;;;;;;24.27;16.44;100811.44;7637269;32;36624;-82
2022/05/18 17:53:55;;;;;;;2.45;1.08;;;;;;;23.91;17.56;100817.63;7656373;32;39285;-81
2022/05/18 17:58:12;;;;;;;1.90;0.70;;;;;;;23.59;17.71;100823.50;7647151;32;40166;-82
2022/05/18 18:02:34;;;;;;;5.40;1.12;;;;;;;23.11;19.39;100813.53;7629779;32;38184;-83
2022/05/18 18:06:50;;;;;;;2.58;0.90;;;;;;;22.77;21.87;100829.09;7630671;32;37298;-82
2022/05/18 18:11:06;;;;;;;0.80;0.73;;;;;;;22.55;22.45;100832.06;7629624;32;40004;-82
2022/05/18 18:15:23;;;;;;;5.82;1.17;;;;;;;22.11;23.73;100827.28;7630223;32;39440;-82
2022/05/18 18:19:43;;;;;;;2.78;1.27;;;;;;;21.75;23.71;100831.13;7633904;32;38683;-82
2022/05/18 18:24:05;;;;;;;5.60;1.02;;;;;;;21.54;24.69;100838.38;7633824;32;38127;-82
2022/05/18 18:28:21;;;;;;;6.85;1.37;;;;;;;21.14;26.14;100838.34;7633429;32;39467;-82
2022/05/18 18:32:37;;;;;;;5.47;1.33;;;;;;;21.15;25.05;100845.53;7633274;32;39948;-80
2022/05/18 18:36:53;;;;;;;7.60;1.40;;;;;;;20.82;25.92;100854.13;7633756;32;37947;-79
2022/05/18 18:41:10;;;;;;;2.53;1.10;;;;;;;20.41;27.20;100839.25;7653915;32;37811;-80
2022/05/18 18:46:32;;;;;;;2.95;1.33;;;;;;;20.15;28.06;100852.88;7659344;32;40575;-82
2022/05/18 18:50:03;;;;;;;4.05;1.10;;;;;;;19.98;28.30;100863.78;7636036;32;40081;-81
2022/05/18 18:58:55;;;;;;;2.37;0.77;;;;;;;19.56;26.71;100865.66;7638385;32;37852;-81
2022/05/18 19:03:11;;;;;;;1.10;0.77;;;;;;;19.30;26.85;100869.75;7632739;32;39990;-82
2022/05/18 19:07:28;;;;;;;2.03;0.75;;;;;;;19.18;27.03;100882.41;7632704;32;39895;-79
2022/05/18 19:11:44;;;;;;;3.20;0.70;;;;;;;18.93;26.28;100884.50;7656137;32;37949;-81
2022/05/18 19:16:01;;;;;;;1.33;1.05;;;;;;;18.73;26.32;100905.75;7659078;32;36847;-80
2022/05/18 19:20:19;;;;;;;1.42;0.90;;;;;;;18.36;26.57;100901.87;7658847;32;39126;-80
2022/05/18 19:24:35;;;;;;;2.22;0.70;;;;;;;18.29;27.36;100903.38;7658661;32;39852;-80
2022/05/18 19:28:53;;;;;;;1.12;0.85;;;;;;;17.97;28.21;100907.63;7643499;32;37673;-83
2022/05/18 19:33:09;;;;;;;1.00;0.95;;;;;;;17.69;27.69;100906.53;7645125;32;37193;-80
2022/05/18 19:37:26;;;;;;;1.30;0.80;;;;;;;17.72;28.02;100906.78;7646223;32;38872;-79
2022/05/18 19:41:43;;;;;;;0.93;0.75;;;;;;;17.48;28.46;100909.50;7632196;32;39774;-81
2022/05/18 19:46:00;;;;;;;3.83;0.85;;;;;;;17.24;28.64;100914.97;7631994;32;37906;-82
2022/05/18 19:50:16;;;;;;;1.60;1.00;;;;;;;17.21;28.99;100910.88;7632747;32;37827;-81
2022/05/18 19:54:33;;;;;;;2.90;1.00;;;;;;;16.94;29.55;100918.81;7632113;32;39063;-79
2022/05/18 19:58:49;;;;;;;2.30;0.82;;;;;;;16.71;29.81;100926.62;7631873;32;40673;-80
2022/05/18 20:03:06;;;;;;;0.70;0.70;;;;;;;16.74;29.55;100920.56;7631834;32;38738;-78
2022/05/18 20:07:22;;;;;;;1.35;0.90;;;;;;;16.73;29.09;100924.44;7639872;32;37810;-81
2022/05/18 20:11:39;;;;;;;5.45;1.08;;;;;;;16.53;29.61;100926.19;7642365;32;39074;-80
2022/05/18 20:15:57;;;;;;;2.65;0.80;;;;;;;16.48;29.76;100923.47;7631828;32;39934;-82
2022/05/18 20:20:14;;;;;;;0.90;0.80;;;;;;;16.33;29.32;100926.28;7653417;32;38126;-81
2022/05/18 20:24:30;;;;;;;1.05;0.90;;;;;;;16.23;27.89;100937.34;7656650;32;37013;-81
2022/05/18 20:28:47;;;;;;;1.58;1.08;;;;;;;16.10;29.62;100936.03;7654867;32;39292;-80
2022/05/18 20:33:03;;;;;;;1.67;0.85;;;;;;;16.13;29.26;100939.03;7657881;32;40864;-81
2022/05/18 20:37:19;;;;;;;0.90;0.90;;;;;;;16.03;29.29;100944.56;7650997;32;38734;-76
2022/05/18 20:41:39;;;;;;;2.65;1.10;;;;;;;15.81;29.72;100938.59;7647582;32;36722;-79